Time;durP1;ratioP1;P1;durP2;ratioP2;P2;SDS_P1;SDS_P2;PMS_P1;PMS_P2;Temp;Humidity;BMP_temperature;BMP_pressure;BME280_temperature;BME280_humidity;BME280_pressure;Samples;Min_cycle;Max_cycle;Signal;HPM_P1;HPM_P2
2022/08/08 00:02:52;;;;;;;2.22;1.75;;;;;;;17.18;49.97;99468.69;5171620;28;20058;-69
2022/08/08 00:05:52;;;;;;;5.82;1.90;;;;;;;17.25;50.13;99463.47;5172583;28;20058;-69
2022/08/08 00:09:01;;;;;;;4.97;1.70;;;;;;;17.20;49.95;99461.31;5174533;28;20056;-68
2022/08/08 00:12:02;;;;;;;3.63;1.52;;;;;;;17.24;50.24;99468.00;5168909;28;20428;-69
2022/08/08 00:15:14;;;;;;;4.55;1.58;;;;;;;16.91;50.59;99457.41;5172400;28;20053;-69
2022/08/08 00:18:25;;;;;;;2.00;1.50;;;;;;;16.63;50.89;99473.03;5175092;28;20081;-69
2022/08/08 00:21:25;;;;;;;1.92;1.45;;;;;;;16.72;51.58;99465.84;5172259;28;20065;-69
2022/08/08 00:24:30;;;;;;;2.78;1.35;;;;;;;16.87;50.25;99468.66;5181978;28;20152;-69
2022/08/08 00:27:21;;;;;;;1.70;1.30;;;;;;;16.88;49.92;99462.28;5182566;28;20111;-69
2022/08/08 00:30:23;;;;;;;3.63;1.30;;;;;;;16.68;50.88;99464.50;5168381;28;20575;-69
2022/08/08 00:33:22;;;;;;;2.05;1.48;;;;;;;16.81;50.41;99466.66;5177174;28;20054;-69
2022/08/08 00:36:31;;;;;;;6.88;1.83;;;;;;;16.91;49.83;99470.81;5172723;28;20104;-70
2022/08/08 00:39:34;;;;;;;2.67;1.40;;;;;;;16.55;51.09;99451.63;5182009;28;20053;-69
2022/08/08 00:42:58;;;;;;;2.80;1.40;;;;;;;16.66;51.02;99470.03;5195161;28;20077;-69
2022/08/08 00:46:33;;;;;;;2.80;1.45;;;;;;;16.72;50.41;99473.00;5179100;28;20056;-69
2022/08/08 00:49:58;;;;;;;5.13;2.33;;;;;;;16.90;49.85;99477.19;5174956;28;20132;-69
2022/08/08 00:53:07;;;;;;;3.45;1.30;;;;;;;16.57;50.84;99476.41;5174737;28;20442;-69
2022/08/08 00:56:37;;;;;;;2.42;1.42;;;;;;;16.63;50.54;99481.06;5176466;28;20053;-69
2022/08/08 01:00:02;;;;;;;1.95;1.27;;;;;;;16.77;50.40;99479.56;5165813;28;20085;-69
2022/08/08 01:03:25;;;;;;;2.80;1.35;;;;;;;16.63;50.24;99469.53;5178809;28;20428;-69
2022/08/08 01:07:17;;;;;;;4.03;1.40;;;;;;;16.38;50.62;99480.28;5190347;28;20112;-69
2022/08/08 01:10:48;;;;;;;1.48;1.30;;;;;;;16.42;50.49;99483.44;5175645;28;20042;-68
2022/08/08 01:13:50;;;;;;;1.63;1.30;;;;;;;16.40;50.32;99485.47;5188728;28;20072;-69
2022/08/08 01:17:11;;;;;;;4.75;1.42;;;;;;;16.16;51.55;99491.69;5174319;28;20045;-69
2022/08/08 01:20:37;;;;;;;1.95;1.50;;;;;;;16.01;51.47;99479.97;5176854;28;20054;-69
2022/08/08 01:23:47;;;;;;;5.28;1.42;;;;;;;16.01;51.80;99488.81;5177112;28;20136;-68
2022/08/08 01:27:15;;;;;;;1.70;1.42;;;;;;;16.26;50.77;99487.00;5174812;28;20053;-69
2022/08/08 01:30:59;;;;;;;4.25;1.70;;;;;;;16.43;50.08;99488.66;5170028;28;20054;-68
2022/08/08 01:34:33;;;;;;;3.95;1.60;;;;;;;15.96;50.74;99489.34;5168519;28;20493;-69
2022/08/08 01:37:49;;;;;;;4.78;1.42;;;;;;;16.04;51.45;99490.34;5167459;28;20060;-69
2022/08/08 01:41:09;;;;;;;2.30;1.50;;;;;;;16.08;51.57;99464.91;5187026;28;20053;-69
2022/08/08 01:44:21;;;;;;;7.15;1.60;;;;;;;16.19;50.66;99483.28;5185585;28;20602;-68
2022/08/08 01:47:52;;;;;;;2.10;1.42;;;;;;;15.98;51.33;99486.47;5179654;28;20056;-69
2022/08/08 01:51:07;;;;;;;4.50;1.70;;;;;;;15.88;50.78;99483.97;5192642;28;20046;-69
2022/08/08 01:54:37;;;;;;;3.83;1.45;;;;;;;15.88;51.92;99483.97;5171735;28;20100;-69
2022/08/08 01:58:06;;;;;;;2.83;1.50;;;;;;;16.03;51.39;99497.53;5169577;28;20054;-69
2022/08/08 02:01:32;;;;;;;2.67;1.27;;;;;;;15.86;51.71;99475.28;5170521;28;20054;-69
2022/08/08 02:05:00;;;;;;;1.70;1.33;;;;;;;15.72;51.74;99490.13;5175311;28;20076;-69
2022/08/08 02:08:15;;;;;;;2.38;1.38;;;;;;;15.59;52.33;99488.91;5178254;28;20065;-69
2022/08/08 02:11:23;;;;;;;3.10;1.40;;;;;;;15.64;53.46;99494.59;5171188;28;20100;-68
2022/08/08 02:14:45;;;;;;;1.73;1.40;;;;;;;15.65;54.36;99501.63;5175258;28;20169;-68
2022/08/08 02:17:57;;;;;;;4.82;1.30;;;;;;;15.95;54.41;99493.00;5173114;28;20056;-69
2022/08/08 02:24:23;;;;;;;5.50;1.55;;;;;;;15.63;53.05;99484.88;5172229;28;20065;-69
2022/08/08 02:27:27;;;;;;;2.75;1.73;;;;;;;15.69;53.52;99486.94;5186531;28;20074;-69
2022/08/08 02:31:02;;;;;;;3.58;1.63;;;;;;;15.70;53.51;99473.44;5171487;28;20113;-69
2022/08/08 02:34:39;;;;;;;4.32;2.00;;;;;;;15.60;54.05;99477.22;5187813;28;20073;-69
2022/08/08 02:38:24;;;;;;;6.40;1.73;;;;;;;15.49;54.35;99484.53;5179345;28;20061;-69
2022/08/08 02:41:45;;;;;;;2.42;1.50;;;;;;;15.46;54.72;99460.84;5173821;28;20103;-69
2022/08/08 02:45:30;;;;;;;4.32;1.75;;;;;;;15.48;54.77;99482.03;5178689;28;20125;-69
2022/08/08 02:49:10;;;;;;;2.20;1.52;;;;;;;15.55;54.96;99487.56;5184350;28;20429;-69
2022/08/08 02:52:43;;;;;;;3.05;1.60;;;;;;;15.58;54.89;99485.41;5176039;28;20421;-68
2022/08/08 02:56:05;;;;;;;3.20;1.50;;;;;;;15.54;55.13;99493.91;5174737;28;20502;-69
2022/08/08 02:59:11;;;;;;;4.82;1.70;;;;;;;15.51;55.18;99489.72;5170725;28;20049;-69
2022/08/08 03:02:49;;;;;;;3.22;1.90;;;;;;;15.55;54.42;99496.41;5176406;28;20046;-69
2022/08/08 03:06:21;;;;;;;4.03;1.80;;;;;;;15.36;55.41;99497.53;5167969;28;20053;-69
2022/08/08 03:09:59;;;;;;;2.92;1.80;;;;;;;15.08;56.33;99498.75;5186526;28;20057;-69
2022/08/08 03:13:13;;;;;;;4.68;1.83;;;;;;;15.18;56.53;99507.50;5172728;28;20056;-69
2022/08/08 03:16:28;;;;;;;4.03;1.80;;;;;;;15.12;56.31;99506.28;5191802;28;20523;-68
2022/08/08 03:19:45;;;;;;;2.70;1.85;;;;;;;14.98;56.83;99509.56;5177746;28;20513;-68
2022/08/08 03:22:51;;;;;;;;;;;;;;;14.68;57.82;99514.41;5178571;28;20061;-69
2022/08/08 03:25:48;;;;;;;6.20;1.88;;;;;;;14.70;57.61;99517.78;5183749;28;19925;-69
2022/08/08 03:28:52;;;;;;;5.60;2.07;;;;;;;14.69;57.69;99509.91;5169484;28;20054;-69
2022/08/08 03:34:57;;;;;;;2.85;2.15;;;;;;;14.87;56.32;99521.38;5177932;28;20132;-69
2022/08/08 03:37:48;;;;;;;2.40;2.20;;;;;;;14.47;56.68;99496.06;5180051;28;20171;-68
2022/08/08 03:40:58;;;;;;;4.05;2.20;;;;;;;14.55;56.26;99522.81;5179327;28;20169;-68
2022/08/08 03:43:58;;;;;;;5.72;2.00;;;;;;;15.06;58.70;99522.09;5171548;28;20100;-69
2022/08/08 03:46:50;;;;;;;4.82;1.73;;;;;;;14.85;58.90;99531.34;5184230;28;20116;-69
2022/08/08 03:49:44;;;;;;;3.22;2.10;;;;;;;14.77;57.40;99529.47;5180026;28;20046;-69
2022/08/08 03:52:52;;;;;;;3.50;2.50;;;;;;;14.96;57.21;99530.25;5176638;28;20053;-69
2022/08/08 03:55:48;;;;;;;3.85;2.00;;;;;;;14.94;56.89;99519.72;5191765;28;20051;-69
2022/08/08 03:58:49;;;;;;;5.20;2.28;;;;;;;15.13;56.66;99544.50;5197846;28;20429;-69
2022/08/08 04:01:40;;;;;;;3.60;1.88;;;;;;;14.88;57.38;99539.06;5178690;28;20073;-69
2022/08/08 04:04:51;;;;;;;3.67;2.38;;;;;;;14.96;57.22;99539.09;5174808;28;20086;-69
2022/08/08 04:07:42;;;;;;;3.25;2.20;;;;;;;14.97;56.81;99542.63;5178451;28;20049;-68
2022/08/08 04:10:36;;;;;;;4.25;2.00;;;;;;;14.79;57.44;99540.00;5177472;28;20042;-69
2022/08/08 04:13:27;;;;;;;3.08;1.92;;;;;;;14.66;58.20;99547.56;5190240;28;20073;-68
2022/08/08 04:16:38;;;;;;;3.60;2.28;;;;;;;14.47;58.99;99541.44;5166981;28;20054;-70
2022/08/08 04:19:32;;;;;;;4.43;2.13;;;;;;;14.52;58.76;99557.00;5174136;28;20043;-70
2022/08/08 04:22:27;;;;;;;5.78;2.17;;;;;;;14.24;59.79;99548.25;5183511;28;20131;-70
2022/08/08 04:25:19;;;;;;;2.90;2.20;;;;;;;14.63;59.33;99555.91;5170796;23;20072;-71
2022/08/08 04:28:20;;;;;;;3.65;2.17;;;;;;;14.71;58.60;99562.13;5180289;28;20277;-71
2022/08/08 04:31:30;;;;;;;4.22;2.05;;;;;;;14.54;59.31;99561.19;5186008;28;20120;-71
2022/08/08 04:34:41;;;;;;;2.58;1.85;;;;;;;14.67;59.71;99567.94;5185049;28;20171;-71
2022/08/08 04:37:38;;;;;;;2.42;2.13;;;;;;;14.59;59.82;99567.88;5168836;28;20105;-71
2022/08/08 04:40:37;;;;;;;4.53;2.08;;;;;;;14.40;59.76;99561.69;5153914;28;20634;-71
2022/08/08 04:43:27;;;;;;;4.72;2.10;;;;;;;14.44;59.01;99573.75;5158203;28;20448;-71
2022/08/08 04:46:37;;;;;;;2.97;2.20;;;;;;;14.52;58.65;99587.19;5169237;28;20046;-71
2022/08/08 04:49:29;;;;;;;4.82;2.20;;;;;;;14.60;58.68;99572.22;5147088;28;20057;-71
2022/08/08 04:52:39;;;;;;;4.55;2.30;;;;;;;14.99;57.54;99592.19;5174073;28;20042;-70
2022/08/08 04:55:35;;;;;;;3.38;2.08;;;;;;;14.96;57.96;99584.47;5162574;28;20421;-70
2022/08/08 04:58:44;;;;;;;2.60;2.08;;;;;;;15.01;58.03;99598.22;5171914;28;20508;-71
2022/08/08 05:01:37;;;;;;;4.03;2.30;;;;;;;15.31;56.61;99601.38;5155024;28;20449;-71
2022/08/08 05:04:40;;;;;;;3.42;2.40;;;;;;;15.34;57.22;99595.72;5169706;28;20304;-71
2022/08/08 05:07:33;;;;;;;2.13;1.92;;;;;;;15.26;56.60;99590.31;5153703;28;20113;-71
2022/08/08 05:10:32;;;;;;;5.82;2.60;;;;;;;15.44;56.96;99611.63;5173810;28;20151;-71
2022/08/08 05:13:23;;;;;;;3.72;2.58;;;;;;;15.48;56.71;99610.31;5160803;28;20055;-71
2022/08/08 05:16:15;;;;;;;5.45;2.13;;;;;;;15.46;56.51;99609.63;5160131;28;20181;-71
2022/08/08 05:19:25;;;;;;;3.92;2.10;;;;;;;15.54;56.26;99611.50;5158921;28;20057;-71
2022/08/08 05:22:36;;;;;;;6.05;2.58;;;;;;;15.47;56.17;99619.34;5158326;28;20057;-71
2022/08/08 05:25:28;;;;;;;5.75;2.17;;;;;;;15.52;56.35;99614.31;5154174;28;20057;-71
2022/08/08 05:28:30;;;;;;;11.38;2.92;;;;;;;15.71;57.24;99618.63;5157904;28;20050;-71
2022/08/08 05:31:41;;;;;;;8.25;2.70;;;;;;;15.91;56.20;99617.34;5173923;28;20053;-71
2022/08/08 05:34:51;;;;;;;7.00;2.70;;;;;;;15.96;55.99;99614.19;5152565;28;20133;-71
2022/08/08 05:37:53;;;;;;;2.78;1.90;;;;;;;15.95;55.65;99621.38;5173808;28;20057;-71
2022/08/08 05:41:06;;;;;;;8.00;2.40;;;;;;;16.00;56.42;99622.75;5158438;28;20042;-71
2022/08/08 05:44:18;;;;;;;2.72;2.20;;;;;;;15.99;55.72;99627.22;5159013;28;20517;-71
2022/08/08 05:47:09;;;;;;;5.57;2.30;;;;;;;16.07;55.25;99615.72;5160674;28;20061;-71
2022/08/08 05:50:05;;;;;;;6.93;2.08;;;;;;;16.12;54.60;99618.72;5156334;28;20050;-71
2022/08/08 05:52:56;;;;;;;4.70;2.33;;;;;;;16.24;54.29;99620.09;5157452;28;20125;-71
2022/08/08 05:56:07;;;;;;;10.05;2.90;;;;;;;16.40;54.65;99620.13;5160637;28;20065;-71
2022/08/08 05:59:12;;;;;;;3.05;2.20;;;;;;;16.58;53.36;99621.78;5159632;28;20058;-71
2022/08/08 06:03:09;;;;;;;8.90;2.40;;;;;;;16.67;53.33;99631.50;5165807;28;20047;-71
2022/08/08 06:05:31;;;;;;;5.85;2.08;;;;;;;16.92;52.79;99627.03;5170321;28;20520;-71
2022/08/08 06:08:30;;;;;;;5.57;2.30;;;;;;;17.14;51.58;99637.00;5149391;28;20108;-71
2022/08/08 06:11:32;;;;;;;3.00;1.92;;;;;;;17.27;50.80;99631.13;5151665;28;20049;-71
2022/08/08 06:14:29;;;;;;;4.18;2.00;;;;;;;17.30;51.08;99625.44;5170862;28;20611;-71
2022/08/08 06:17:21;;;;;;;3.65;1.95;;;;;;;17.48;50.52;99627.91;5150014;28;20578;-71
2022/08/08 06:20:32;;;;;;;3.03;2.08;;;;;;;17.73;50.92;99641.22;5171274;28;20083;-71
2022/08/08 06:23:23;;;;;;;2.47;1.77;;;;;;;17.76;49.81;99632.81;5160756;28;20056;-71
2022/08/08 06:26:42;;;;;;;5.05;1.90;;;;;;;17.92;49.96;99638.13;5156148;28;20061;-70
2022/08/08 06:29:54;;;;;;;3.65;2.00;;;;;;;18.22;49.17;99638.31;5153904;28;20061;-70
2022/08/08 06:32:57;;;;;;;3.13;1.98;;;;;;;18.39;49.13;99634.50;5170940;28;20124;-70
2022/08/08 06:35:51;;;;;;;3.42;1.92;;;;;;;18.39;48.66;99647.09;5151887;28;20080;-70
2022/08/08 06:39:00;;;;;;;5.32;2.17;;;;;;;18.55;48.34;99657.72;5156785;28;20061;-70
2022/08/08 06:41:58;;;;;;;4.18;2.10;;;;;;;18.68;49.45;99654.44;5158255;28;20128;-72
2022/08/08 06:45:02;;;;;;;;;;;;;;;18.87;47.95;99659.31;5159716;28;20413;-67
2022/08/08 06:47:56;;;;;;;2.83;1.92;;;;;;;18.97;48.31;99654.56;5142508;28;19928;-66
2022/08/08 06:50:57;;;;;;;4.32;2.42;;;;;;;19.11;46.88;99657.44;5146668;28;20136;-67
2022/08/08 06:53:49;;;;;;;2.20;1.95;;;;;;;19.26;47.33;99660.97;5151319;28;20069;-66
2022/08/08 06:56:50;;;;;;;2.45;2.00;;;;;;;19.46;47.17;99664.78;5159621;28;20054;-67
2022/08/08 06:59:42;;;;;;;;;;;;;;;19.80;46.93;99652.69;5169860;28;20544;-67
2022/08/08 07:02:56;;;;;;;4.20;2.00;;;;;;;20.28;45.89;99662.97;5170742;28;19936;-67
2022/08/08 07:05:49;;;;;;;5.25;2.70;;;;;;;20.37;45.74;99651.06;5156386;28;20053;-68
2022/08/08 07:08:57;;;;;;;7.93;2.35;;;;;;;20.79;46.02;99660.19;5156885;28;20183;-68
2022/08/08 07:11:53;;;;;;;4.00;2.72;;;;;;;21.03;44.44;99654.41;5149330;28;20070;-70
2022/08/08 07:15:05;;;;;;;5.35;2.33;;;;;;;21.19;44.24;99655.97;5154465;28;20156;-68
2022/08/08 07:18:19;;;;;;;3.17;2.05;;;;;;;20.91;45.20;99644.34;5157639;28;20093;-70
2022/08/08 07:21:28;;;;;;;4.65;2.20;;;;;;;21.32;44.74;99658.78;5147656;28;20140;-69
2022/08/08 07:24:28;;;;;;;5.57;1.90;;;;;;;21.47;43.98;99657.84;5155898;28;20061;-68
2022/08/08 07:27:24;;;;;;;4.18;2.38;;;;;;;21.52;43.57;99656.22;5153279;28;20058;-67
2022/08/08 07:30:17;;;;;;;6.63;2.03;;;;;;;21.80;43.72;99660.72;5136592;28;20527;-68
2022/08/08 07:33:21;;;;;;;10.10;2.10;;;;;;;21.86;43.16;99649.13;5156715;28;20740;-70
2022/08/08 07:36:12;;;;;;;12.30;3.00;;;;;;;23.81;40.52;99661.59;5148733;28;20624;-68
2022/08/08 07:39:06;;;;;;;16.48;2.17;;;;;;;24.25;37.83;99665.34;5156331;28;20108;-69
2022/08/08 07:42:03;;;;;;;10.63;2.10;;;;;;;25.44;36.81;99671.00;5154739;28;20732;-69
2022/08/08 07:44:56;;;;;;;;;;;;;;;26.31;34.48;99665.38;5156632;28;20050;-68
2022/08/08 07:47:51;;;;;;;5.97;2.50;;;;;;;26.86;34.12;99667.97;5159644;28;20413;-69
2022/08/08 07:50:43;;;;;;;7.85;2.17;;;;;;;26.66;33.52;99666.38;5170039;28;20058;-68
2022/08/08 07:53:53;;;;;;;11.13;2.10;;;;;;;27.42;32.21;99663.88;5153789;28;20051;-69
2022/08/08 07:56:59;;;;;;;12.85;2.40;;;;;;;27.76;31.82;99667.66;5170356;28;20447;-68
2022/08/08 08:00:13;;;;;;;6.18;1.80;;;;;;;28.87;30.39;99653.69;5156223;28;20474;-68
2022/08/08 08:03:32;;;;;;;12.93;2.00;;;;;;;27.97;32.32;99668.91;5158046;28;20102;-68
2022/08/08 08:06:36;;;;;;;5.65;2.05;;;;;;;29.28;30.71;99668.03;5168963;28;20062;-70
2022/08/08 08:09:37;;;;;;;2.67;1.80;;;;;;;29.43;29.75;99660.06;5159368;28;20588;-71
2022/08/08 08:12:31;;;;;;;10.43;1.92;;;;;;;28.80;30.74;99672.13;5149935;28;20046;-69
2022/08/08 08:15:34;;;;;;;5.20;1.90;;;;;;;30.24;29.10;99681.41;5172122;28;20069;-69
2022/08/08 08:18:31;;;;;;;4.63;1.92;;;;;;;30.34;29.73;99678.78;5153747;28;20485;-69
2022/08/08 08:21:29;;;;;;;6.82;1.63;;;;;;;30.69;27.83;99672.00;5157009;28;20532;-69
2022/08/08 08:24:48;;;;;;;7.13;1.90;;;;;;;30.28;28.88;99676.25;5151780;28;20069;-69
2022/08/08 08:27:41;;;;;;;2.33;1.70;;;;;;;30.90;28.27;99678.53;5153910;28;20054;-68
2022/08/08 08:30:38;;;;;;;7.32;2.17;;;;;;;31.58;28.64;99668.59;5154241;28;20105;-69
2022/08/08 08:33:28;;;;;;;7.43;1.65;;;;;;;30.48;28.82;99670.16;5175803;28;20073;-69
2022/08/08 08:36:21;;;;;;;5.17;1.53;;;;;;;31.70;28.50;99665.66;5161222;28;20065;-69
2022/08/08 08:39:16;;;;;;;2.58;1.70;;;;;;;29.68;30.41;99658.78;5167373;28;20437;-70
2022/08/08 08:42:16;;;;;;;4.38;1.90;;;;;;;30.04;29.98;99659.25;5155471;28;20042;-70
2022/08/08 08:45:22;;;;;;;1.92;1.50;;;;;;;31.00;29.33;99669.56;5152581;28;20065;-69
2022/08/08 08:48:19;;;;;;;5.53;1.90;;;;;;;31.65;27.66;99665.63;5172506;28;20054;-69
2022/08/08 08:51:14;;;;;;;7.32;1.90;;;;;;;33.00;26.04;99665.78;5159533;28;20061;-68
2022/08/08 08:54:06;;;;;;;2.95;1.80;;;;;;;31.76;27.39;99656.38;5156434;28;20061;-70
2022/08/08 08:57:01;;;;;;;3.58;1.67;;;;;;;31.47;27.62;99660.59;5165366;28;20200;-70
2022/08/08 09:00:05;;;;;;;3.15;1.55;;;;;;;32.37;27.08;99643.97;5163333;28;20077;-70
2022/08/08 09:03:08;;;;;;;1.70;1.45;;;;;;;32.17;27.30;99656.56;5174634;28;20057;-68
2022/08/08 09:06:01;;;;;;;6.30;2.13;;;;;;;32.62;26.69;99655.03;5160030;28;20065;-69
2022/08/08 09:09:00;;;;;;;2.33;1.55;;;;;;;31.21;27.50;99665.88;5170095;28;20084;-69
2022/08/08 09:11:53;;;;;;;3.03;1.88;;;;;;;32.40;26.59;99657.97;5159476;28;20073;-69
2022/08/08 09:14:57;;;;;;;7.65;1.65;;;;;;;33.19;26.20;99653.13;5172069;28;20530;-70
2022/08/08 09:17:53;;;;;;;2.25;1.50;;;;;;;33.37;26.36;99654.47;5155683;28;20536;-69
2022/08/08 09:20:50;;;;;;;3.72;1.70;;;;;;;32.20;27.31;99653.28;5160249;28;20062;-69
2022/08/08 09:24:01;;;;;;;1.73;1.63;;;;;;;33.67;25.40;99645.34;5156525;28;20144;-70
2022/08/08 09:27:05;;;;;;;3.28;1.92;;;;;;;34.27;24.43;99645.34;5156403;28;20049;-69
2022/08/08 09:30:09;;;;;;;6.65;1.73;;;;;;;33.84;26.04;99643.09;5172496;28;20061;-70
2022/08/08 09:33:05;;;;;;;7.22;1.85;;;;;;;34.71;24.46;99644.56;5162205;28;20417;-69
2022/08/08 09:36:21;;;;;;;3.28;1.75;;;;;;;34.93;24.47;99638.56;5169104;28;20192;-69
2022/08/08 09:39:20;;;;;;;3.83;1.50;;;;;;;35.63;22.68;99640.94;5159454;28;20055;-69
2022/08/08 09:42:14;;;;;;;4.68;1.88;;;;;;;35.38;23.42;99636.50;5171445;28;20042;-69
2022/08/08 09:45:30;;;;;;;4.95;1.80;;;;;;;35.30;23.49;99638.78;5155788;28;20050;-69
2022/08/08 09:48:44;;;;;;;2.67;1.50;;;;;;;35.17;22.37;99630.41;5160474;28;20081;-69
2022/08/08 09:51:40;;;;;;;3.50;1.23;;;;;;;35.50;22.42;99635.00;5160348;28;20117;-69
2022/08/08 09:54:50;;;;;;;4.82;1.58;;;;;;;35.10;23.15;99619.72;5162811;28;20452;-69
2022/08/08 09:57:45;;;;;;;3.85;1.60;;;;;;;34.88;23.69;99616.59;5162354;28;20540;-69
2022/08/08 10:00:46;;;;;;;;;;;;;;;32.95;24.31;99615.22;5160008;28;20140;-68
2022/08/08 10:03:48;;;;;;;2.17;1.55;;;;;;;32.50;25.31;99607.81;5161286;28;19944;-68
2022/08/08 10:06:46;;;;;;;3.03;1.63;;;;;;;32.48;25.79;99615.47;5160194;28;20069;-68
2022/08/08 10:09:49;;;;;;;4.97;1.60;;;;;;;33.37;24.71;99605.00;5164131;28;20124;-69
2022/08/08 10:12:51;;;;;;;2.70;1.50;;;;;;;32.36;24.59;99617.66;5160130;28;20042;-69
2022/08/08 10:15:52;;;;;;;3.30;1.20;;;;;;;33.01;24.82;99607.81;5159689;28;20053;-69
2022/08/08 10:19:00;;;;;;;;;;;;;;;33.18;23.80;99613.03;5160392;28;20053;-68
2022/08/08 10:21:53;;;;;;;3.45;1.27;;;;;;;33.85;24.70;99606.22;5160282;28;20716;-69
2022/08/08 10:24:45;;;;;;;2.53;1.30;;;;;;;34.32;23.33;99609.56;5153636;28;20100;-69
2022/08/08 10:27:41;;;;;;;5.30;1.45;;;;;;;34.36;23.05;99608.69;5161057;28;20052;-69
2022/08/08 10:30:33;;;;;;;2.88;1.20;;;;;;;33.06;24.22;99605.06;5160176;28;20054;-69
2022/08/08 10:33:44;;;;;;;3.53;1.40;;;;;;;33.88;22.43;99604.84;5152174;28;20048;-68
2022/08/08 10:36:56;;;;;;;1.55;1.45;;;;;;;34.08;23.34;99602.00;5160973;28;20451;-69
2022/08/08 10:39:49;;;;;;;3.47;1.52;;;;;;;33.30;24.22;99598.97;5155545;28;20061;-69
2022/08/08 10:42:46;;;;;;;1.60;1.35;;;;;;;32.77;25.63;99592.97;5157292;28;20172;-68
2022/08/08 10:45:45;;;;;;;1.67;1.38;;;;;;;33.41;23.73;99595.06;5160301;28;20396;-69
2022/08/08 10:48:48;;;;;;;3.75;1.17;;;;;;;33.89;24.10;99596.28;5152016;28;20087;-69
2022/08/08 10:51:48;;;;;;;3.28;1.70;;;;;;;33.30;24.30;99576.97;5150294;28;20054;-70
2022/08/08 10:54:54;;;;;;;6.47;1.48;;;;;;;32.04;25.71;99588.47;5155185;28;20054;-69
2022/08/08 10:57:49;;;;;;;1.80;1.38;;;;;;;32.43;26.31;99588.03;5147242;28;20053;-69
2022/08/08 11:00:44;;;;;;;3.38;1.58;;;;;;;31.81;25.60;99585.09;5160633;28;20525;-69
2022/08/08 11:03:52;;;;;;;1.73;1.40;;;;;;;31.03;26.42;99586.88;5158287;28;20042;-68
2022/08/08 11:07:00;;;;;;;3.53;1.30;;;;;;;32.27;25.37;99577.00;5158353;28;20131;-68
2022/08/08 11:09:51;;;;;;;3.30;1.45;;;;;;;32.01;25.62;99572.56;5157740;28;20051;-69
2022/08/08 11:12:45;;;;;;;1.42;1.20;;;;;;;31.58;26.07;99580.06;5155582;28;20695;-69
2022/08/08 11:15:36;;;;;;;2.17;1.30;;;;;;;32.64;24.08;99564.97;5145149;28;20105;-69
2022/08/08 11:18:48;;;;;;;1.48;1.02;;;;;;;32.44;23.07;99574.03;5158125;28;20058;-70
2022/08/08 11:21:40;;;;;;;2.35;1.30;;;;;;;32.45;23.10;99575.69;5151759;28;20054;-70
2022/08/08 11:24:33;;;;;;;2.45;1.10;;;;;;;32.89;22.48;99563.31;5157681;28;20615;-69
2022/08/08 11:27:31;;;;;;;5.93;1.25;;;;;;;33.27;21.68;99563.78;5153849;28;20204;-68
2022/08/08 11:30:28;;;;;;;2.28;1.13;;;;;;;33.52;22.59;99566.50;5156327;28;20057;-68
2022/08/08 11:33:24;;;;;;;1.63;1.20;;;;;;;33.49;20.75;99556.06;5154859;28;20062;-69
2022/08/08 11:36:37;;;;;;;3.33;1.30;;;;;;;33.19;21.30;99554.22;5153612;28;20485;-69
2022/08/08 11:39:32;;;;;;;2.85;1.50;;;;;;;33.45;21.62;99553.00;5152580;28;20050;-68
2022/08/08 11:42:27;;;;;;;6.50;5.50;;;;;;;33.36;21.51;99553.88;5151912;28;20054;-69
2022/08/08 11:45:21;;;;;;;1.67;0.90;;;;;;;33.17;21.48;99545.41;5158942;28;20512;-69
2022/08/08 11:48:13;;;;;;;2.67;0.95;;;;;;;33.19;22.20;99552.28;5155558;28;20513;-69
2022/08/08 11:51:10;;;;;;;2.42;1.02;;;;;;;32.71;21.56;99559.19;5154449;28;20169;-69
2022/08/08 11:54:32;;;;;;;2.90;1.30;;;;;;;32.96;21.93;99545.47;5155445;28;20102;-68
2022/08/08 11:57:28;;;;;;;5.00;1.20;;;;;;;33.26;21.79;99554.72;5158323;28;20112;-69
2022/08/08 12:00:27;;;;;;;4.32;1.10;;;;;;;33.12;20.38;99545.44;5168276;28;20065;-69
2022/08/08 12:03:18;;;;;;;2.28;1.27;;;;;;;32.72;22.43;99542.47;5150152;28;20050;-69
2022/08/08 12:06:14;;;;;;;1.50;1.17;;;;;;;32.79;21.92;99544.94;5150917;28;20085;-69
2022/08/08 12:09:07;;;;;;;2.70;1.10;;;;;;;32.40;22.18;99536.41;5159122;28;20119;-69
2022/08/08 12:11:57;;;;;;;1.85;1.25;;;;;;;32.92;22.38;99532.53;5157061;28;20065;-68
2022/08/08 12:14:58;;;;;;;2.75;1.30;;;;;;;33.11;22.02;99525.34;5158893;28;20496;-69
2022/08/08 12:17:49;;;;;;;5.75;1.20;;;;;;;32.53;21.39;99524.91;5162982;28;20050;-70
2022/08/08 12:20:40;;;;;;;3.42;1.38;;;;;;;32.71;22.97;99512.53;5161209;28;20058;-68
2022/08/08 12:23:37;;;;;;;2.63;1.10;;;;;;;32.61;21.80;99534.50;5159934;28;20524;-68
2022/08/08 12:26:49;;;;;;;2.92;1.30;;;;;;;31.89;23.28;99526.22;5161892;28;20497;-69
2022/08/08 12:29:57;;;;;;;2.85;1.17;;;;;;;32.02;23.02;99522.94;5161233;28;20061;-69
2022/08/08 12:32:48;;;;;;;5.28;1.30;;;;;;;32.38;22.79;99522.13;5162040;28;20053;-69
2022/08/08 12:35:39;;;;;;;3.90;1.30;;;;;;;32.07;23.08;99524.03;5162961;28;20069;-69
2022/08/08 12:38:50;;;;;;;8.35;1.88;;;;;;;32.40;23.33;99509.78;5163026;28;20053;-69
2022/08/08 12:41:44;;;;;;;4.60;1.30;;;;;;;32.40;22.98;99514.44;5161208;28;20054;-69
2022/08/08 12:44:46;;;;;;;2.92;1.20;;;;;;;32.01;23.20;99504.00;5162088;28;20073;-69
2022/08/08 12:47:40;;;;;;;1.23;1.13;;;;;;;31.53;22.84;99511.53;5162980;28;20113;-69
2022/08/08 12:50:53;;;;;;;1.88;1.08;;;;;;;31.54;22.98;99511.25;5162547;28;20097;-69
2022/08/08 12:53:58;;;;;;;1.10;1.00;;;;;;;31.71;23.33;99508.28;5162463;28;20054;-69
2022/08/08 12:56:49;;;;;;;4.93;1.20;;;;;;;31.51;22.67;99506.31;5162593;28;20076;-69
2022/08/08 12:59:51;;;;;;;2.63;1.00;;;;;;;32.04;23.12;99517.16;5157063;28;20665;-69
2022/08/08 13:03:00;;;;;;;1.73;1.40;;;;;;;31.85;23.01;99502.28;5160272;28;20101;-69
2022/08/08 13:06:08;;;;;;;3.35;1.23;;;;;;;31.68;23.58;99506.09;5159685;28;20132;-69
2022/08/08 13:09:08;;;;;;;1.42;1.20;;;;;;;31.72;22.67;99504.47;5154040;28;20053;-69
2022/08/08 13:11:59;;;;;;;2.78;1.05;;;;;;;31.42;23.36;99498.88;5153700;28;20108;-69
2022/08/08 13:15:12;;;;;;;1.38;1.23;;;;;;;31.45;22.64;99498.34;5161109;28;20050;-71
2022/08/08 13:18:03;;;;;;;1.23;1.13;;;;;;;31.50;23.15;99481.94;5162371;28;20531;-69
2022/08/08 13:21:03;;;;;;;1.05;1.00;;;;;;;31.48;23.28;99492.34;5155795;28;20054;-67
2022/08/08 13:23:56;;;;;;;1.48;1.15;;;;;;;31.79;22.42;99490.50;5168951;28;20051;-70
2022/08/08 13:26:46;;;;;;;3.25;1.30;;;;;;;31.94;23.66;99484.25;5158746;28;20132;-72
2022/08/08 13:30:01;;;;;;;2.25;1.10;;;;;;;31.76;22.84;99483.66;5161672;28;20053;-70
2022/08/08 13:32:56;;;;;;;3.25;1.27;;;;;;;31.48;21.95;99484.13;5156619;28;20047;-68
2022/08/08 13:35:47;;;;;;;1.55;1.00;;;;;;;31.58;22.53;99484.97;5159009;28;20084;-70
2022/08/08 13:38:40;;;;;;;1.52;1.10;;;;;;;30.75;22.87;99489.47;5154575;28;20100;-70
2022/08/08 13:41:33;;;;;;;1.10;0.98;;;;;;;31.11;22.54;99477.63;5158859;28;20433;-70
2022/08/08 13:44:33;;;;;;;1.85;1.10;;;;;;;31.29;22.55;99479.09;5152893;28;20054;-69
2022/08/08 13:47:27;;;;;;;3.03;0.98;;;;;;;31.19;22.48;99481.78;5155099;28;20077;-68
2022/08/08 13:50:19;;;;;;;4.00;0.90;;;;;;;30.68;22.71;99484.22;5162601;28;20050;-71
2022/08/08 13:53:30;;;;;;;2.13;1.10;;;;;;;30.92;22.81;99478.38;5161692;28;20049;-73
2022/08/08 13:56:35;;;;;;;1.73;1.00;;;;;;;31.12;23.06;99459.28;5171048;28;20068;-69
2022/08/08 13:59:47;;;;;;;2.92;1.10;;;;;;;31.00;23.60;99462.25;5170067;28;20065;-70
2022/08/08 14:02:38;;;;;;;5.18;1.35;;;;;;;30.83;22.73;99470.66;5161191;28;20057;-70
2022/08/08 14:05:34;;;;;;;3.83;1.08;;;;;;;31.18;23.26;99460.13;5161351;28;20061;-70
2022/08/08 14:08:46;;;;;;;3.28;1.10;;;;;;;30.42;23.46;99464.06;5159182;28;20050;-71
2022/08/08 14:11:37;;;;;;;3.00;0.90;;;;;;;31.10;22.81;99464.22;5161077;28;20050;-71
2022/08/08 14:14:39;;;;;;;1.25;1.15;;;;;;;31.33;23.06;99454.75;5161330;28;20058;-67
2022/08/08 14:17:30;;;;;;;2.78;1.02;;;;;;;31.38;22.77;99451.19;5158867;28;20046;-69
2022/08/08 14:20:41;;;;;;;1.75;1.00;;;;;;;31.13;22.63;99452.75;5160800;28;20058;-70
2022/08/08 14:23:48;;;;;;;5.68;1.30;;;;;;;31.32;22.57;99451.16;5160163;28;20051;-70
2022/08/08 14:26:57;;;;;;;9.15;1.02;;;;;;;30.88;21.83;99421.41;5159913;28;20054;-71
2022/08/08 14:29:56;;;;;;;1.52;1.08;;;;;;;31.21;22.04;99454.13;5160230;28;20052;-71
2022/08/08 14:32:51;;;;;;;5.60;1.38;;;;;;;31.16;23.04;99435.78;5160430;28;20154;-69
2022/08/08 14:35:43;;;;;;;1.58;1.00;;;;;;;31.24;22.07;99445.38;5160202;28;20374;-71